createdAt,value
2023-06-29T00:01:57.582Z,14.35
2023-06-29T00:04:26.810Z,14.34
2023-06-29T00:06:56.365Z,14.35
2023-06-29T00:09:23.679Z,14.33
2023-06-29T00:11:50.879Z,14.29
2023-06-29T00:14:17.596Z,14.22
2023-06-29T00:16:44.449Z,14.16
2023-06-29T00:19:12.871Z,14.16
2023-06-29T00:21:40.069Z,14.14
2023-06-29T00:24:06.960Z,14.13
2023-06-29T00:26:33.589Z,14.06
2023-06-29T00:29:00.032Z,14.02
2023-06-29T00:31:27.727Z,13.95
2023-06-29T00:33:54.441Z,14.04
2023-06-29T00:36:20.968Z,14.07
2023-06-29T00:38:47.635Z,14.11
2023-06-29T00:41:16.348Z,14.08
2023-06-29T00:43:46.587Z,13.97
2023-06-29T00:46:17.835Z,14.01
2023-06-29T00:48:44.427Z,13.95
2023-06-29T00:51:12.486Z,14.03
2023-06-29T00:53:38.997Z,13.97
2023-06-29T00:56:05.779Z,13.96
2023-06-29T00:58:32.348Z,14.09
2023-06-29T01:00:59.069Z,14.04
2023-06-29T01:03:26.484Z,14.11
2023-06-29T01:05:57.311Z,14.06
2023-06-29T01:08:34.147Z,14.03
2023-06-29T01:11:04.419Z,13.98
2023-06-29T01:13:32.267Z,13.98
2023-06-29T01:16:00.817Z,13.90
2023-06-29T01:18:31.519Z,13.89
2023-06-29T01:21:00.293Z,13.69
2023-06-29T01:23:31.145Z,13.62
2023-06-29T01:25:58.530Z,13.59
2023-06-29T01:28:26.875Z,13.64
2023-06-29T01:30:53.416Z,13.69
2023-06-29T01:33:24.685Z,13.74
2023-06-29T01:36:01.214Z,13.75
2023-06-29T01:38:37.485Z,13.68
2023-06-29T01:41:07.307Z,13.65
2023-06-29T01:43:36.002Z,13.68
2023-06-29T01:46:03.924Z,13.70
2023-06-29T01:48:31.291Z,13.56
2023-06-29T01:50:58.120Z,13.56
2023-06-29T01:53:24.665Z,13.57
2023-06-29T01:55:51.137Z,13.55
2023-06-29T01:58:17.597Z,13.59
2023-06-29T02:00:44.160Z,13.61
2023-06-29T02:03:10.780Z,13.76
2023-06-29T02:05:37.407Z,13.70
2023-06-29T02:08:04.181Z,13.55
2023-06-29T02:10:30.789Z,13.46
2023-06-29T02:12:57.236Z,13.38
2023-06-29T02:15:23.750Z,13.35
2023-06-29T02:17:50.265Z,13.28
2023-06-29T02:20:18.461Z,13.22
2023-06-29T02:22:45.002Z,13.14
2023-06-29T02:25:14.342Z,13.14
2023-06-29T02:27:40.910Z,13.24
2023-06-29T02:30:08.006Z,13.30
2023-06-29T02:32:35.279Z,13.17
2023-06-29T02:35:02.028Z,13.16
2023-06-29T02:37:28.716Z,13.22
2023-06-29T02:39:55.249Z,13.17
2023-06-29T02:42:23.335Z,13.15
2023-06-29T02:44:49.819Z,13.09
2023-06-29T02:47:16.352Z,13.08
2023-06-29T02:49:42.897Z,13.08
2023-06-29T02:52:12.075Z,13.09
2023-06-29T02:54:38.658Z,12.97
2023-06-29T02:57:05.452Z,12.95
2023-06-29T02:59:32.086Z,12.91
2023-06-29T03:01:58.571Z,12.91
2023-06-29T03:04:25.060Z,13.00
2023-06-29T03:06:54.155Z,12.95
2023-06-29T03:09:20.716Z,12.98
2023-06-29T03:11:47.172Z,12.88
2023-06-29T03:14:13.719Z,12.94
2023-06-29T03:16:40.449Z,13.03
2023-06-29T03:19:06.962Z,13.10
2023-06-29T03:21:33.475Z,13.14
2023-06-29T03:23:59.941Z,13.03
2023-06-29T03:26:26.478Z,13.00
2023-06-29T03:28:52.981Z,13.07
2023-06-29T03:31:19.652Z,13.10
2023-06-29T03:33:46.305Z,13.12
2023-06-29T03:36:13.710Z,13.13
2023-06-29T03:38:40.264Z,13.20
2023-06-29T03:41:06.890Z,13.26
2023-06-29T03:43:33.658Z,13.28
2023-06-29T03:46:00.537Z,13.30
2023-06-29T03:48:30.074Z,13.31
2023-06-29T03:50:58.188Z,13.32
2023-06-29T03:53:25.019Z,13.44
2023-06-29T03:55:51.617Z,13.33
2023-06-29T03:58:18.181Z,13.34
2023-06-29T04:00:45.343Z,13.44
2023-06-29T04:03:12.434Z,13.40
2023-06-29T04:05:39.089Z,13.45
2023-06-29T04:08:06.192Z,13.48
2023-06-29T04:10:34.055Z,13.52
2023-06-29T04:13:01.011Z,13.47
2023-06-29T04:15:27.579Z,13.52
2023-06-29T04:17:54.410Z,13.53
2023-06-29T04:20:20.977Z,13.59
2023-06-29T04:22:47.572Z,13.62
2023-06-29T04:25:14.167Z,13.67
2023-06-29T04:27:42.832Z,13.72
2023-06-29T04:30:10.099Z,13.71
2023-06-29T04:32:36.599Z,13.79
2023-06-29T04:35:03.219Z,13.85
2023-06-29T04:37:37.701Z,13.95
2023-06-29T04:40:08.205Z,14.03
2023-06-29T04:42:34.934Z,14.15
2023-06-29T04:45:02.013Z,14.12
2023-06-29T04:47:33.294Z,14.21
2023-06-29T04:49:59.963Z,14.29
2023-06-29T04:52:27.763Z,14.41
2023-06-29T04:54:54.272Z,14.49
2023-06-29T04:57:20.763Z,14.63
2023-06-29T04:59:47.283Z,14.69
2023-06-29T05:02:13.763Z,14.80
2023-06-29T05:04:40.283Z,14.93
2023-06-29T05:07:06.839Z,15.04
2023-06-29T05:09:33.311Z,15.13
2023-06-29T05:11:59.822Z,15.19
2023-06-29T05:14:27.633Z,15.29
2023-06-29T05:16:54.416Z,15.36
2023-06-29T05:19:20.940Z,15.50
2023-06-29T05:21:47.461Z,15.64
2023-06-29T05:24:14.009Z,15.83
2023-06-29T05:26:40.536Z,15.98
2023-06-29T05:29:06.997Z,16.11
2023-06-29T05:31:33.634Z,16.21
2023-06-29T05:34:00.337Z,16.34
2023-06-29T05:36:27.767Z,16.55
2023-06-29T05:38:54.499Z,16.68
2023-06-29T05:41:21.023Z,16.79
2023-06-29T05:43:47.540Z,16.96
2023-06-29T05:46:14.105Z,17.06
2023-06-29T05:48:40.648Z,17.18
2023-06-29T05:51:07.178Z,17.28
2023-06-29T05:53:33.868Z,17.47
2023-06-29T05:56:00.534Z,17.63
2023-06-29T05:58:27.057Z,17.76
2023-06-29T06:00:53.609Z,17.90
2023-06-29T06:03:21.675Z,18.02
2023-06-29T06:05:48.300Z,18.16
2023-06-29T06:08:15.826Z,18.30
2023-06-29T06:10:43.007Z,18.45
2023-06-29T06:13:10.397Z,18.62
2023-06-29T06:15:36.950Z,18.83
2023-06-29T06:18:03.686Z,19.06
2023-06-29T06:20:30.399Z,19.20
2023-06-29T06:22:56.923Z,19.40
2023-06-29T06:25:23.480Z,19.62
2023-06-29T06:27:50.008Z,19.69
2023-06-29T06:30:16.664Z,19.73
2023-06-29T06:32:43.312Z,19.73
2023-06-29T06:35:10.308Z,19.86
2023-06-29T06:37:37.473Z,19.95
2023-06-29T06:40:08.656Z,20.01
2023-06-29T06:42:44.699Z,19.98
2023-06-29T06:45:11.843Z,19.97
2023-06-29T06:47:38.527Z,20.00
2023-06-29T06:50:05.625Z,20.15
2023-06-29T06:52:32.224Z,20.23
2023-06-29T06:54:59.160Z,20.40
2023-06-29T06:57:26.221Z,20.58
2023-06-29T06:59:52.734Z,20.79
2023-06-29T07:02:19.407Z,20.97
2023-06-29T07:04:46.163Z,21.10
2023-06-29T07:07:12.783Z,21.17
2023-06-29T07:09:40.064Z,21.27
2023-06-29T07:12:07.263Z,21.40
2023-06-29T07:14:33.864Z,21.47
2023-06-29T07:17:00.693Z,21.77
2023-06-29T07:24:26.593Z,22.35
2023-06-29T07:26:53.119Z,22.46
2023-06-29T07:29:19.572Z,22.44
2023-06-29T07:31:47.265Z,22.41
2023-06-29T07:34:14.024Z,22.41
2023-06-29T07:36:40.609Z,22.20
2023-06-29T07:39:07.205Z,22.19
2023-06-29T07:41:33.802Z,22.37
2023-06-29T07:44:01.101Z,22.51
2023-06-29T07:46:27.614Z,22.47
2023-06-29T07:48:55.767Z,22.47
2023-06-29T07:51:22.791Z,22.67
2023-06-29T07:53:49.452Z,22.73
2023-06-29T07:56:16.028Z,22.74
2023-06-29T07:58:42.716Z,22.88
2023-06-29T08:01:09.403Z,22.99
2023-06-29T08:03:50.978Z,23.03
2023-06-29T08:08:52.501Z,23.08
2023-06-29T08:11:19.235Z,23.12
2023-06-29T08:13:45.735Z,23.09
2023-06-29T08:16:12.335Z,22.97
2023-06-29T08:18:38.864Z,23.10
2023-06-29T08:21:05.368Z,23.08
2023-06-29T08:23:35.263Z,23.31
2023-06-29T08:26:01.930Z,23.54
2023-06-29T08:28:28.406Z,23.80
2023-06-29T08:30:54.961Z,23.94
2023-06-29T08:33:24.739Z,24.17
2023-06-29T08:35:52.534Z,24.27
2023-06-29T08:38:19.159Z,24.56
2023-06-29T08:40:48.921Z,24.65
2023-06-29T08:43:19.453Z,24.99
2023-06-29T08:45:46.930Z,25.04
2023-06-29T08:48:15.205Z,24.94
2023-06-29T08:50:46.666Z,24.98
2023-06-29T08:53:14.442Z,24.93
2023-06-29T08:55:42.988Z,24.70
2023-06-29T08:58:09.713Z,24.89
2023-06-29T09:00:37.098Z,24.71
2023-06-29T09:03:05.020Z,24.75
2023-06-29T09:05:31.581Z,24.77
2023-06-29T09:07:58.285Z,24.62
2023-06-29T09:10:24.886Z,24.56
2023-06-29T09:12:53.732Z,24.71
2023-06-29T09:15:21.652Z,24.75
2023-06-29T09:17:55.372Z,24.65
2023-06-29T09:20:45.832Z,24.75
2023-06-29T09:23:14.051Z,24.95
2023-06-29T09:25:40.766Z,25.16
2023-06-29T09:28:08.587Z,25.25
2023-06-29T09:30:39.037Z,25.43
2023-06-29T09:33:11.371Z,25.48
2023-06-29T09:35:40.626Z,25.73
2023-06-29T09:38:07.675Z,25.80
2023-06-29T09:40:53.275Z,25.74
2023-06-29T09:43:21.832Z,25.57
2023-06-29T09:45:48.481Z,25.46
2023-06-29T09:50:54.770Z,25.50
2023-06-29T09:53:32.543Z,25.75
2023-06-29T09:56:00.812Z,25.82
2023-06-29T09:58:29.320Z,25.96
2023-06-29T10:00:59.496Z,26.22
2023-06-29T10:03:32.538Z,26.19
2023-06-29T10:06:04.408Z,26.27
2023-06-29T10:08:34.015Z,25.98
2023-06-29T10:11:03.927Z,25.86
2023-06-29T10:13:37.708Z,26.03
2023-06-29T10:16:10.091Z,26.07
2023-06-29T10:18:42.189Z,25.90
2023-06-29T10:21:08.973Z,25.92
2023-06-29T10:23:36.175Z,25.83
2023-06-29T10:26:04.983Z,25.78
2023-06-29T10:28:31.675Z,26.01
2023-06-29T10:31:00.546Z,25.92
2023-06-29T10:33:27.826Z,25.81
2023-06-29T10:35:59.182Z,26.21
2023-06-29T10:38:33.651Z,26.48
2023-06-29T10:41:00.564Z,26.55
2023-06-29T10:43:28.572Z,26.71
2023-06-29T10:45:55.408Z,26.88
2023-06-29T10:48:38.420Z,26.61
2023-06-29T10:51:09.790Z,26.70
2023-06-29T10:53:36.506Z,26.69
2023-06-29T10:56:03.086Z,26.80
2023-06-29T10:58:38.979Z,27.22
2023-06-29T11:01:05.547Z,27.43
2023-06-29T11:03:32.756Z,27.14
2023-06-29T11:06:02.963Z,27.35
2023-06-29T11:08:31.818Z,27.67
2023-06-29T11:11:14.337Z,27.51
2023-06-29T11:13:40.910Z,27.90
2023-06-29T11:16:07.564Z,28.41
2023-06-29T11:18:34.050Z,28.45
2023-06-29T11:21:01.386Z,28.25
2023-06-29T11:23:27.949Z,28.19
2023-06-29T11:25:54.454Z,27.94
2023-06-29T11:28:21.236Z,27.82
2023-06-29T11:33:35.334Z,27.16
2023-06-29T11:36:02.347Z,26.83
2023-06-29T11:38:29.207Z,26.72
2023-06-29T11:41:06.052Z,26.66
2023-06-29T11:43:33.159Z,26.71
2023-06-29T11:46:00.118Z,26.15
2023-06-29T11:48:30.564Z,26.18
2023-06-29T11:51:00.429Z,26.12
2023-06-29T11:53:27.105Z,25.94
2023-06-29T11:55:54.819Z,25.86
2023-06-29T11:58:21.461Z,25.81
2023-06-29T12:00:56.694Z,25.61
2023-06-29T12:03:24.379Z,25.41
2023-06-29T12:05:52.037Z,25.78
2023-06-29T12:08:21.554Z,25.94
2023-06-29T12:10:48.338Z,25.95
2023-06-29T12:13:14.852Z,25.91
2023-06-29T12:17:59.175Z,26.05
2023-06-29T12:18:32.517Z,26.22
2023-06-29T12:21:02.381Z,26.07
2023-06-29T12:23:29.034Z,26.29
2023-06-29T12:25:55.908Z,26.44
2023-06-29T12:28:23.024Z,26.50
2023-06-29T12:30:49.628Z,26.64
2023-06-29T12:33:16.192Z,26.81
2023-06-29T12:35:45.520Z,27.06
2023-06-29T12:38:12.477Z,26.97
2023-06-29T12:40:39.277Z,26.77
2023-06-29T12:43:06.053Z,26.91
2023-06-29T12:45:32.734Z,26.86
2023-06-29T12:47:59.238Z,26.71
2023-06-29T12:50:25.826Z,26.60
2023-06-29T12:52:52.695Z,26.44
2023-06-29T12:55:19.245Z,26.39
2023-06-29T12:57:46.037Z,26.72
2023-06-29T13:00:13.591Z,26.92
2023-06-29T13:02:40.716Z,26.80
2023-06-29T13:05:07.816Z,27.14
2023-06-29T13:07:35.818Z,27.14
2023-06-29T13:10:04.350Z,27.03
2023-06-29T13:12:31.498Z,26.94
2023-06-29T13:14:59.077Z,27.05
2023-06-29T13:17:26.041Z,26.95
2023-06-29T13:19:52.601Z,27.12
2023-06-29T13:22:19.541Z,27.15
2023-06-29T13:24:48.075Z,27.31
2023-06-29T13:27:14.781Z,27.06
2023-06-29T13:29:41.880Z,26.85
2023-06-29T13:32:08.990Z,26.67
2023-06-29T13:34:35.630Z,26.60
2023-06-29T13:37:02.683Z,27.26
2023-06-29T13:39:29.728Z,27.50
2023-06-29T13:41:56.470Z,27.77
2023-06-29T13:44:23.072Z,27.62
2023-06-29T13:46:49.669Z,27.25
2023-06-29T13:49:16.764Z,27.15
2023-06-29T13:51:43.721Z,27.21
2023-06-29T13:54:10.357Z,27.03
2023-06-29T13:56:38.956Z,27.03
2023-06-29T13:59:10.605Z,26.82
2023-06-29T14:01:38.752Z,27.32
2023-06-29T14:04:06.832Z,27.79
2023-06-29T14:06:39.172Z,27.73
2023-06-29T14:09:07.145Z,27.61
2023-06-29T14:11:34.037Z,27.44
2023-06-29T14:14:00.748Z,26.93
2023-06-29T14:16:28.952Z,27.10
2023-06-29T14:18:55.624Z,26.38
2023-06-29T14:21:22.679Z,26.48
2023-06-29T14:23:49.378Z,26.45
2023-06-29T14:26:16.755Z,26.64
2023-06-29T14:28:43.951Z,26.44
2023-06-29T14:31:10.737Z,26.51
2023-06-29T14:33:37.571Z,26.49
2023-06-29T14:36:06.161Z,26.42
2023-06-29T14:38:32.890Z,26.52
2023-06-29T14:41:03.053Z,27.00
2023-06-29T14:43:30.448Z,27.23
2023-06-29T14:45:57.552Z,27.47
2023-06-29T14:48:24.915Z,27.60
2023-06-29T14:50:52.852Z,27.62
2023-06-29T14:53:23.531Z,27.76
2023-06-29T14:55:50.611Z,27.69
2023-06-29T14:58:17.818Z,28.20
2023-06-29T15:00:44.533Z,28.54
2023-06-29T15:03:11.253Z,27.84
2023-06-29T15:05:37.943Z,27.72
2023-06-29T15:08:04.704Z,28.27
2023-06-29T15:10:31.334Z,28.26
2023-06-29T15:12:57.853Z,28.00
2023-06-29T15:15:24.480Z,27.20
2023-06-29T15:17:51.396Z,27.27
2023-06-29T15:20:19.070Z,27.46
2023-06-29T15:22:46.114Z,27.08
2023-06-29T15:25:12.891Z,27.13
2023-06-29T15:27:39.922Z,26.54
2023-06-29T15:30:06.901Z,26.53
2023-06-29T15:32:33.656Z,26.26
2023-06-29T15:35:02.215Z,26.22
2023-06-29T15:37:28.752Z,26.20
2023-06-29T15:39:55.361Z,26.15
2023-06-29T15:42:22.103Z,26.29
2023-06-29T15:44:48.668Z,26.53
2023-06-29T15:47:15.180Z,26.67
2023-06-29T15:49:42.014Z,26.19
2023-06-29T15:52:09.270Z,26.22
2023-06-29T15:54:35.938Z,25.98
2023-06-29T15:57:02.478Z,25.89
2023-06-29T15:59:28.930Z,25.78
2023-06-29T16:01:55.488Z,25.74
2023-06-29T16:04:23.451Z,25.58
2023-06-29T16:06:50.114Z,25.31
2023-06-29T16:09:16.888Z,25.21
2023-06-29T16:11:43.397Z,25.29
2023-06-29T16:14:10.009Z,25.41
2023-06-29T16:16:36.742Z,25.56
2023-06-29T16:19:03.438Z,25.55
2023-06-29T16:21:29.957Z,25.75
2023-06-29T16:23:56.527Z,25.66
2023-06-29T16:26:23.120Z,25.51
2023-06-29T16:28:49.778Z,25.52
2023-06-29T16:31:16.417Z,25.87
2023-06-29T16:33:42.999Z,26.13
2023-06-29T16:36:09.574Z,26.32
2023-06-29T16:38:36.105Z,26.44
2023-06-29T16:41:02.642Z,26.53
2023-06-29T16:43:29.101Z,26.40
2023-06-29T16:45:56.729Z,26.25
2023-06-29T16:48:23.211Z,26.60
2023-06-29T16:50:49.742Z,26.69
2023-06-29T16:53:16.385Z,26.89
2023-06-29T16:55:43.124Z,27.16
2023-06-29T16:58:09.813Z,27.05
2023-06-29T17:00:36.283Z,27.37
2023-06-29T17:03:02.890Z,27.77
2023-06-29T17:05:30.637Z,27.83
2023-06-29T17:07:57.441Z,27.36
2023-06-29T17:10:24.066Z,27.12
2023-06-29T17:12:52.102Z,26.66
2023-06-29T17:15:19.426Z,26.61
2023-06-29T17:17:46.713Z,26.36
2023-06-29T17:20:13.522Z,26.34
2023-06-29T17:22:40.280Z,26.28
2023-06-29T17:25:08.423Z,26.24
2023-06-29T17:27:34.967Z,26.10
2023-06-29T17:30:01.557Z,26.11
2023-06-29T17:32:28.197Z,26.01
2023-06-29T17:34:54.731Z,25.79
2023-06-29T17:37:21.212Z,25.52
2023-06-29T17:39:47.734Z,25.36
2023-06-29T17:42:21.605Z,25.46
2023-06-29T17:44:49.322Z,25.37
2023-06-29T17:47:16.003Z,25.25
2023-06-29T17:49:43.546Z,25.27
2023-06-29T17:52:10.559Z,25.20
2023-06-29T17:54:37.132Z,25.44
2023-06-29T17:57:04.800Z,25.29
2023-06-29T17:59:31.270Z,25.33
2023-06-29T18:01:57.850Z,25.49
2023-06-29T18:04:24.616Z,25.59
2023-06-29T18:06:51.473Z,25.52
2023-06-29T18:09:17.992Z,25.51
2023-06-29T18:11:44.501Z,25.33
2023-06-29T18:14:10.986Z,25.40
2023-06-29T18:16:37.581Z,25.25
2023-06-29T18:19:04.135Z,25.22
2023-06-29T18:21:30.601Z,25.27
2023-06-29T18:23:57.157Z,25.13
2023-06-29T18:26:23.790Z,24.93
2023-06-29T18:28:50.332Z,24.93
2023-06-29T18:31:16.993Z,24.88
2023-06-29T18:33:43.572Z,24.79
2023-06-29T18:36:10.233Z,24.89
2023-06-29T18:38:36.862Z,24.75
2023-06-29T18:41:03.475Z,24.60
2023-06-29T18:43:30.004Z,24.47
2023-06-29T18:45:56.502Z,24.42
2023-06-29T18:48:23.071Z,24.43
2023-06-29T18:50:49.541Z,24.59
2023-06-29T18:53:16.087Z,24.58
2023-06-29T18:55:42.570Z,24.45
2023-06-29T18:58:09.090Z,24.17
2023-06-29T19:00:36.795Z,23.39
2023-06-29T19:03:03.504Z,23.08
2023-06-29T19:05:30.813Z,22.92
2023-06-29T19:07:57.370Z,22.82
2023-06-29T19:10:23.930Z,22.52
2023-06-29T19:12:50.513Z,22.42
2023-06-29T19:15:16.973Z,22.35
2023-06-29T19:17:43.523Z,22.30
2023-06-29T19:20:10.850Z,22.36
2023-06-29T19:22:37.379Z,22.06
2023-06-29T19:25:04.234Z,21.90
2023-06-29T19:27:30.755Z,21.92
2023-06-29T19:29:57.230Z,21.87
2023-06-29T19:32:23.721Z,21.95
2023-06-29T19:34:51.447Z,21.91
2023-06-29T19:37:18.280Z,21.85
2023-06-29T19:39:44.897Z,21.83
2023-06-29T19:42:11.396Z,21.94
2023-06-29T19:44:37.838Z,21.93
2023-06-29T19:47:04.525Z,21.77
2023-06-29T19:49:31.026Z,21.87
2023-06-29T19:51:58.967Z,21.75
2023-06-29T19:54:25.832Z,21.54
2023-06-29T19:56:52.426Z,21.55
2023-06-29T19:59:19.041Z,21.60
2023-06-29T20:01:45.578Z,21.45
2023-06-29T20:04:12.230Z,21.30
2023-06-29T20:06:38.854Z,21.13
2023-06-29T20:09:05.514Z,21.19
2023-06-29T20:11:32.088Z,21.14
2023-06-29T20:13:58.657Z,21.15
2023-06-29T20:16:25.210Z,21.20
2023-06-29T20:18:52.445Z,21.21
2023-06-29T20:21:19.052Z,21.17
2023-06-29T20:23:51.194Z,21.22
2023-06-29T20:26:18.701Z,21.15
2023-06-29T20:28:45.505Z,21.06
2023-06-29T20:31:12.133Z,20.90
2023-06-29T20:33:38.697Z,20.73
2023-06-29T20:36:05.308Z,20.71
2023-06-29T20:38:31.841Z,20.75
2023-06-29T20:40:58.381Z,20.75
2023-06-29T20:43:24.888Z,20.83
2023-06-29T20:45:52.307Z,20.88
2023-06-29T20:48:19.077Z,20.66
2023-06-29T20:50:45.555Z,20.63
2023-06-29T20:53:12.077Z,20.69
2023-06-29T20:55:38.654Z,20.71
2023-06-29T20:58:05.360Z,20.61
2023-06-29T21:00:33.807Z,20.51
2023-06-29T21:03:00.280Z,20.31
2023-06-29T21:05:27.443Z,20.32
2023-06-29T21:07:54.273Z,20.27
2023-06-29T21:10:21.049Z,20.10
2023-06-29T21:12:49.408Z,20.06
2023-06-29T21:15:16.096Z,20.04
2023-06-29T21:17:42.703Z,20.06
2023-06-29T21:20:09.770Z,20.12
2023-06-29T21:22:36.830Z,20.11
2023-06-29T21:25:03.900Z,20.03
2023-06-29T21:27:31.752Z,19.94
2023-06-29T21:29:58.598Z,19.96
2023-06-29T21:32:25.340Z,19.93
2023-06-29T21:34:52.169Z,19.96
2023-06-29T21:37:20.895Z,19.87
2023-06-29T21:39:47.380Z,19.63
2023-06-29T21:42:14.184Z,19.66
2023-06-29T21:44:40.663Z,19.58
2023-06-29T21:47:07.412Z,19.55
2023-06-29T21:49:34.247Z,19.41
2023-06-29T21:52:00.772Z,19.35
2023-06-29T21:54:27.271Z,19.36
2023-06-29T21:56:53.810Z,19.44
2023-06-29T21:59:20.339Z,19.50
2023-06-29T22:01:47.022Z,19.59
2023-06-29T22:04:13.694Z,19.61
2023-06-29T22:06:41.076Z,19.60
2023-06-29T22:09:07.808Z,19.61
2023-06-29T22:11:34.384Z,19.56
2023-06-29T22:14:01.114Z,19.51
2023-06-29T22:16:29.720Z,19.29
2023-06-29T22:18:56.793Z,19.05
2023-06-29T22:21:25.135Z,18.95
2023-06-29T22:23:53.029Z,19.08
2023-06-29T22:26:20.193Z,19.02
2023-06-29T22:28:46.816Z,19.05
2023-06-29T22:31:17.947Z,19.06
2023-06-29T22:33:45.398Z,19.03
2023-06-29T22:36:12.260Z,19.05
2023-06-29T22:38:38.765Z,19.00
2023-06-29T22:41:08.235Z,18.97
2023-06-29T22:43:34.860Z,19.02
2023-06-29T22:46:01.552Z,18.93
2023-06-29T22:48:28.120Z,19.01
2023-06-29T22:50:58.245Z,18.93
2023-06-29T22:53:24.980Z,18.98
2023-06-29T22:55:51.590Z,19.00
2023-06-29T22:58:24.831Z,19.10
2023-06-29T23:00:53.159Z,18.84
2023-06-29T23:03:20.835Z,18.72
2023-06-29T23:05:48.339Z,18.76
2023-06-29T23:08:16.459Z,18.77
2023-06-29T23:10:43.187Z,18.74
2023-06-29T23:13:17.115Z,18.79
2023-06-29T23:15:45.125Z,18.70
2023-06-29T23:18:12.702Z,18.70
2023-06-29T23:20:44.496Z,18.85
2023-06-29T23:23:13.767Z,18.92
2023-06-29T23:25:42.446Z,18.85
2023-06-29T23:28:09.064Z,18.82
2023-06-29T23:30:36.490Z,18.88
2023-06-29T23:33:03.265Z,19.02
2023-06-29T23:35:29.769Z,18.90
2023-06-29T23:37:56.210Z,18.90
2023-06-29T23:40:22.796Z,18.88
2023-06-29T23:42:50.979Z,18.86
2023-06-29T23:45:17.518Z,18.79
2023-06-29T23:47:44.269Z,18.82
2023-06-29T23:50:14.337Z,18.88
2023-06-29T23:52:41.932Z,18.81
2023-06-29T23:55:10.234Z,18.68
2023-06-29T23:57:36.877Z,18.63
